createdAt,value
2023-01-17T00:02:18.796Z,6.11
2023-01-17T00:05:05.275Z,6.11
2023-01-17T00:07:51.320Z,6.10
2023-01-17T00:10:24.809Z,6.12
2023-01-17T00:12:59.901Z,6.11
2023-01-17T00:15:30.850Z,6.10
2023-01-17T00:17:58.698Z,6.11
2023-01-17T00:20:48.477Z,6.10
2023-01-17T00:23:43.715Z,6.11
2023-01-17T00:26:21.189Z,6.07
2023-01-17T00:28:48.953Z,6.06
2023-01-17T00:31:16.895Z,6.06
2023-01-17T00:33:43.947Z,6.02
2023-01-17T00:36:12.113Z,6.01
2023-01-17T00:38:40.238Z,5.99
2023-01-17T00:41:13.898Z,5.90
2023-01-17T00:43:59.874Z,5.81
2023-01-17T00:46:45.344Z,5.78
2023-01-17T00:49:31.133Z,5.77
2023-01-17T00:52:16.790Z,5.79
2023-01-17T00:55:02.757Z,5.80
2023-01-17T00:57:48.914Z,5.80
2023-01-17T01:00:37.546Z,5.80
2023-01-17T01:03:30.790Z,5.79
2023-01-17T01:06:16.304Z,5.79
2023-01-17T01:09:02.071Z,5.78
2023-01-17T01:11:47.676Z,5.79
2023-01-17T01:14:33.117Z,5.78
2023-01-17T01:17:18.782Z,5.75
2023-01-17T01:20:04.837Z,5.73
2023-01-17T01:22:50.476Z,5.71
2023-01-17T01:25:35.897Z,5.68
2023-01-17T01:28:29.791Z,5.66
2023-01-17T01:31:19.082Z,5.70
2023-01-17T01:33:46.101Z,5.66
2023-01-17T01:36:13.251Z,5.60
2023-01-17T01:38:40.254Z,5.59
2023-01-17T01:41:07.285Z,5.58
2023-01-17T01:43:47.728Z,5.59
2023-01-17T01:46:35.543Z,5.56
2023-01-17T01:49:28.355Z,5.56
2023-01-17T01:52:00.207Z,5.55
2023-01-17T01:55:00.380Z,5.53
2023-01-17T01:57:34.902Z,5.53
2023-01-17T02:00:24.877Z,5.49
2023-01-17T02:02:57.097Z,5.49
2023-01-17T02:05:28.715Z,5.47
2023-01-17T02:08:07.760Z,5.41
2023-01-17T02:10:44.296Z,5.36
2023-01-17T02:13:15.827Z,5.34
2023-01-17T02:16:14.043Z,5.32
2023-01-17T02:19:20.726Z,5.33
2023-01-17T02:22:12.793Z,5.31
2023-01-17T02:25:06.011Z,5.33
2023-01-17T02:27:52.559Z,5.33
2023-01-17T02:30:22.142Z,5.33
2023-01-17T02:33:16.517Z,5.35
2023-01-17T02:36:22.979Z,5.35
2023-01-17T02:38:58.116Z,5.37
2023-01-17T02:41:35.083Z,5.38
2023-01-17T02:44:03.687Z,5.38
2023-01-17T02:46:31.445Z,5.39
2023-01-17T02:49:00.350Z,5.39
2023-01-17T02:51:52.651Z,5.39
2023-01-17T02:54:39.824Z,5.41
2023-01-17T02:57:28.483Z,5.40
2023-01-17T03:00:28.386Z,5.39
2023-01-17T03:03:05.858Z,5.40
2023-01-17T03:05:50.424Z,5.39
2023-01-17T03:08:17.754Z,5.38
2023-01-17T03:10:45.989Z,5.38
2023-01-17T03:13:13.055Z,5.40
2023-01-17T03:15:41.286Z,5.43
2023-01-17T03:18:14.722Z,5.44
2023-01-17T03:20:42.129Z,5.45
2023-01-17T03:23:09.345Z,5.46
2023-01-17T03:25:36.740Z,5.49
2023-01-17T03:28:04.432Z,5.51
2023-01-17T03:30:31.705Z,5.52
2023-01-17T03:32:58.727Z,5.51
2023-01-17T03:35:25.748Z,5.52
2023-01-17T03:37:52.753Z,5.52
2023-01-17T03:40:19.889Z,5.51
2023-01-17T03:42:46.920Z,5.52
2023-01-17T03:45:14.028Z,5.53
2023-01-17T03:47:40.914Z,5.53
2023-01-17T03:50:08.866Z,5.52
2023-01-17T03:52:35.815Z,5.54
2023-01-17T03:55:02.854Z,5.53
2023-01-17T03:57:30.004Z,5.53
2023-01-17T03:59:57.885Z,5.50
2023-01-17T04:02:25.968Z,5.49
2023-01-17T04:04:53.021Z,5.47
2023-01-17T04:07:20.536Z,5.43
2023-01-17T04:09:47.503Z,5.46
2023-01-17T04:12:14.803Z,5.41
2023-01-17T04:14:41.806Z,5.31
2023-01-17T04:17:13.276Z,5.27
2023-01-17T04:19:41.196Z,5.25
2023-01-17T04:22:08.770Z,5.24
2023-01-17T04:24:36.065Z,5.24
2023-01-17T04:27:05.108Z,5.26
2023-01-17T04:29:32.736Z,5.26
2023-01-17T04:31:59.694Z,5.27
2023-01-17T04:34:27.130Z,5.26
2023-01-17T04:36:54.150Z,5.26
2023-01-17T04:39:21.134Z,5.26
2023-01-17T04:41:48.248Z,5.25
2023-01-17T04:44:16.431Z,5.25
2023-01-17T04:46:43.375Z,5.27
2023-01-17T04:49:10.428Z,5.23
2023-01-17T04:51:37.342Z,5.19
2023-01-17T04:54:04.455Z,5.12
2023-01-17T04:56:31.357Z,5.09
2023-01-17T04:58:58.939Z,5.08
2023-01-17T05:01:26.678Z,5.06
2023-01-17T05:03:53.692Z,5.04
2023-01-17T05:06:20.652Z,5.03
2023-01-17T05:08:47.624Z,5.02
2023-01-17T05:11:14.876Z,4.98
2023-01-17T05:13:42.124Z,4.97
2023-01-17T05:16:09.158Z,4.95
2023-01-17T05:18:36.296Z,4.92
2023-01-17T05:21:04.425Z,4.91
2023-01-17T05:23:32.448Z,4.92
2023-01-17T05:25:59.774Z,4.88
2023-01-17T05:28:26.974Z,4.88
2023-01-17T05:30:53.999Z,4.87
2023-01-17T05:33:21.091Z,4.88
2023-01-17T05:35:48.062Z,4.89
2023-01-17T05:38:15.035Z,4.87
2023-01-17T05:40:42.012Z,4.83
2023-01-17T05:43:09.113Z,4.81
2023-01-17T05:45:36.382Z,4.79
2023-01-17T05:48:04.351Z,4.78
2023-01-17T05:50:35.641Z,4.78
2023-01-17T05:53:15.402Z,4.78
2023-01-17T05:55:42.955Z,4.77
2023-01-17T05:58:20.978Z,4.72
2023-01-17T06:00:52.569Z,4.69
2023-01-17T06:03:22.223Z,4.66
2023-01-17T06:05:50.229Z,4.65
2023-01-17T06:08:17.325Z,4.66
2023-01-17T06:10:44.195Z,4.70
2023-01-17T06:13:15.333Z,4.73
2023-01-17T06:15:42.679Z,4.72
2023-01-17T06:18:13.095Z,4.72
2023-01-17T06:20:41.904Z,4.73
2023-01-17T06:23:12.662Z,4.77
2023-01-17T06:25:45.206Z,4.79
2023-01-17T06:28:18.973Z,4.82
2023-01-17T06:30:46.785Z,4.84
2023-01-17T06:33:14.527Z,4.87
2023-01-17T06:35:53.328Z,4.91
2023-01-17T06:38:21.120Z,4.93
2023-01-17T06:40:49.200Z,4.96
2023-01-17T06:43:19.118Z,4.99
2023-01-17T06:45:46.221Z,4.99
2023-01-17T06:48:13.391Z,4.97
2023-01-17T06:50:40.385Z,4.97
2023-01-17T06:53:07.975Z,4.98
2023-01-17T06:55:37.265Z,5.01
2023-01-17T06:58:04.183Z,5.01
2023-01-17T07:00:35.003Z,5.00
2023-01-17T07:03:02.859Z,4.97
2023-01-17T07:05:29.833Z,4.98
2023-01-17T07:07:57.820Z,5.02
2023-01-17T07:10:24.741Z,5.00
2023-01-17T07:12:51.687Z,5.04
2023-01-17T07:15:18.689Z,4.97
2023-01-17T07:17:45.712Z,4.96
2023-01-17T07:20:13.920Z,4.89
2023-01-17T07:22:45.487Z,4.90
2023-01-17T07:25:12.929Z,4.91
2023-01-17T07:27:39.956Z,4.93
2023-01-17T07:30:07.731Z,4.95
2023-01-17T07:32:35.368Z,4.99
2023-01-17T07:35:02.324Z,5.03
2023-01-17T07:37:29.345Z,5.08
2023-01-17T07:39:56.379Z,5.08
2023-01-17T07:42:24.520Z,5.10
2023-01-17T07:44:51.519Z,5.11
2023-01-17T07:47:18.542Z,5.14
2023-01-17T07:49:45.609Z,5.18
2023-01-17T07:52:12.615Z,5.18
2023-01-17T07:54:39.670Z,5.21
2023-01-17T07:57:12.452Z,5.23
2023-01-17T07:59:40.387Z,5.25
2023-01-17T08:02:17.721Z,5.28
2023-01-17T08:04:45.335Z,5.31
2023-01-17T08:07:14.008Z,5.31
2023-01-17T08:09:42.314Z,5.33
2023-01-17T08:12:10.329Z,5.32
2023-01-17T08:14:37.291Z,5.34
2023-01-17T08:17:11.489Z,5.35
2023-01-17T08:19:38.948Z,5.36
2023-01-17T08:22:06.342Z,5.37
2023-01-17T08:24:33.899Z,5.38
2023-01-17T08:27:00.855Z,5.38
2023-01-17T08:29:28.180Z,5.39
2023-01-17T08:31:55.793Z,5.38
2023-01-17T08:34:23.830Z,5.39
2023-01-17T08:36:53.897Z,5.40
2023-01-17T08:39:22.167Z,5.40
2023-01-17T08:41:49.440Z,5.40
2023-01-17T08:44:16.548Z,5.42
2023-01-17T08:46:47.208Z,5.44
2023-01-17T08:49:14.338Z,5.41
2023-01-17T08:51:41.551Z,5.41
2023-01-17T08:54:11.914Z,5.41
2023-01-17T08:56:39.527Z,5.40
2023-01-17T08:59:06.729Z,5.42
2023-01-17T09:01:40.792Z,5.42
2023-01-17T09:04:14.100Z,5.39
2023-01-17T09:06:45.451Z,5.44
2023-01-17T09:09:13.646Z,5.42
2023-01-17T09:11:40.641Z,5.44
2023-01-17T09:14:07.734Z,5.47
2023-01-17T09:16:34.932Z,5.48
2023-01-17T09:19:01.995Z,5.47
2023-01-17T09:21:29.020Z,5.47
2023-01-17T09:23:56.371Z,5.48
2023-01-17T09:26:29.282Z,5.48
2023-01-17T09:28:56.501Z,5.47
2023-01-17T09:31:24.590Z,5.47
2023-01-17T09:33:53.230Z,5.46
2023-01-17T09:36:22.213Z,5.47
2023-01-17T09:38:49.556Z,5.48
2023-01-17T09:41:29.164Z,5.49
2023-01-17T09:44:23.782Z,5.48
2023-01-17T09:46:55.279Z,5.48
2023-01-17T09:49:45.518Z,5.51
2023-01-17T09:52:17.874Z,5.51
2023-01-17T09:54:48.575Z,5.60
2023-01-17T09:57:54.762Z,5.53
2023-01-17T10:00:34.128Z,5.57
2023-01-17T10:03:32.099Z,5.48
2023-01-17T10:06:28.257Z,5.32
2023-01-17T10:09:25.250Z,5.31
2023-01-17T10:12:16.351Z,5.37
2023-01-17T10:15:39.968Z,5.37
2023-01-17T10:18:30.421Z,5.42
2023-01-17T10:21:23.985Z,5.39
2023-01-17T10:24:22.290Z,5.47
2023-01-17T10:26:56.340Z,5.49
2023-01-17T10:29:30.160Z,5.48
2023-01-17T10:32:02.750Z,5.45
2023-01-17T10:34:51.604Z,5.53
2023-01-17T10:37:31.647Z,5.50
2023-01-17T10:40:24.936Z,5.47
2023-01-17T10:43:15.033Z,5.56
2023-01-17T10:45:53.870Z,5.53
2023-01-17T10:48:37.466Z,5.53
2023-01-17T10:51:26.719Z,5.58
2023-01-17T10:54:19.136Z,5.60
2023-01-17T10:56:46.319Z,5.56
2023-01-17T10:59:25.052Z,5.56
2023-01-17T11:01:52.293Z,5.59
2023-01-17T11:04:38.129Z,5.69
2023-01-17T11:07:14.192Z,5.66
2023-01-17T11:09:53.774Z,5.62
2023-01-17T11:12:31.028Z,5.61
2023-01-17T11:15:02.667Z,5.66
2023-01-17T11:17:31.467Z,5.69
2023-01-17T11:20:37.040Z,5.67
2023-01-17T11:23:14.646Z,5.70
2023-01-17T11:25:50.377Z,5.73
2023-01-17T11:28:26.455Z,5.77
2023-01-17T11:30:57.475Z,5.75
2023-01-17T11:33:45.928Z,5.79
2023-01-17T11:36:22.988Z,5.82
2023-01-17T11:39:22.037Z,5.80
2023-01-17T11:41:49.187Z,5.75
2023-01-17T11:44:27.705Z,5.83
2023-01-17T11:47:13.107Z,5.86
2023-01-17T11:49:50.097Z,5.77
2023-01-17T11:52:32.953Z,5.76
2023-01-17T11:55:00.203Z,5.76
2023-01-17T11:57:30.219Z,5.81
2023-01-17T12:00:24.436Z,5.90
2023-01-17T12:03:11.348Z,5.94
2023-01-17T12:05:44.740Z,5.96
2023-01-17T12:08:32.867Z,5.92
2023-01-17T12:11:05.997Z,5.83
2023-01-17T12:14:10.303Z,5.78
2023-01-17T12:17:43.794Z,5.78
2023-01-17T12:20:38.511Z,5.86
2023-01-17T12:23:33.789Z,5.83
2023-01-17T12:26:30.394Z,5.91
2023-01-17T12:29:31.180Z,5.92
2023-01-17T12:32:48.179Z,5.94
2023-01-17T12:35:24.549Z,5.82
2023-01-17T12:38:05.299Z,5.88
2023-01-17T12:40:54.136Z,6.00
2023-01-17T12:43:38.099Z,5.91
2023-01-17T12:46:21.353Z,5.82
2023-01-17T12:48:55.558Z,5.84
2023-01-17T12:51:29.389Z,5.95
2023-01-17T12:54:50.595Z,5.91
2023-01-17T12:57:25.749Z,5.85
2023-01-17T13:00:19.677Z,5.88
2023-01-17T13:03:12.417Z,5.89
2023-01-17T13:05:46.770Z,5.86
2023-01-17T13:08:22.389Z,5.94
2023-01-17T13:11:23.334Z,5.93
2023-01-17T13:13:52.328Z,5.95
2023-01-17T13:16:36.451Z,5.96
2023-01-17T13:19:33.682Z,5.96
2023-01-17T13:22:06.572Z,5.82
2023-01-17T13:24:58.680Z,5.84
2023-01-17T13:27:53.295Z,5.86
2023-01-17T13:30:57.746Z,5.87
2023-01-17T13:33:35.554Z,5.93
2023-01-17T13:36:40.214Z,5.89
2023-01-17T13:39:52.046Z,5.93
2023-01-17T13:42:56.059Z,5.96
2023-01-17T13:45:31.967Z,5.93
2023-01-17T13:48:17.192Z,5.99
2023-01-17T13:50:53.076Z,5.96
2023-01-17T13:53:29.155Z,5.96
2023-01-17T13:56:31.389Z,5.93
2023-01-17T13:59:04.979Z,5.89
2023-01-17T14:01:32.382Z,5.93
2023-01-17T14:04:06.308Z,5.94
2023-01-17T14:06:35.557Z,5.97
2023-01-17T14:09:13.420Z,5.99
2023-01-17T14:11:52.926Z,5.99
2023-01-17T14:14:44.451Z,6.02
2023-01-17T14:17:15.482Z,6.04
2023-01-17T14:19:48.609Z,6.06
2023-01-17T14:22:18.567Z,6.07
2023-01-17T14:25:12.145Z,6.08
2023-01-17T14:27:42.151Z,6.11
2023-01-17T14:30:26.392Z,6.11
2023-01-17T14:32:59.145Z,6.12
2023-01-17T14:35:33.121Z,6.13
2023-01-17T14:38:05.617Z,6.14
2023-01-17T14:40:38.201Z,6.15
2023-01-17T14:43:12.527Z,6.16
2023-01-17T14:45:40.331Z,6.16
2023-01-17T14:48:19.043Z,6.19
2023-01-17T14:50:49.326Z,6.19
2023-01-17T14:53:20.997Z,6.19
2023-01-17T14:55:47.914Z,6.21
2023-01-17T14:58:36.395Z,6.22
2023-01-17T15:01:20.067Z,6.20
2023-01-17T15:03:54.096Z,6.20
2023-01-17T15:06:33.897Z,6.20
2023-01-17T15:09:01.181Z,6.19
2023-01-17T15:11:33.599Z,6.20
2023-01-17T15:14:05.871Z,6.20
2023-01-17T15:16:37.192Z,6.16
2023-01-17T15:19:13.315Z,6.14
2023-01-17T15:21:43.166Z,6.13
2023-01-17T15:24:20.625Z,6.11
2023-01-17T15:26:48.343Z,6.10
2023-01-17T15:29:25.528Z,6.09
2023-01-17T15:32:02.202Z,6.01
2023-01-17T15:34:33.185Z,6.00
2023-01-17T15:37:29.723Z,5.94
2023-01-17T15:40:24.116Z,5.93
2023-01-17T15:42:57.213Z,5.90
2023-01-17T15:45:29.948Z,5.81
2023-01-17T15:47:59.271Z,5.79
2023-01-17T15:50:38.633Z,5.80
2023-01-17T15:53:31.642Z,5.76
2023-01-17T15:55:59.784Z,5.78
2023-01-17T15:58:30.387Z,5.70
2023-01-17T16:00:57.845Z,5.61
2023-01-17T16:03:30.659Z,5.60
2023-01-17T16:06:00.744Z,5.62
2023-01-17T16:08:38.768Z,5.61
2023-01-17T16:11:08.154Z,5.60
2023-01-17T16:13:39.292Z,5.59
2023-01-17T16:16:22.549Z,5.53
2023-01-17T16:18:59.070Z,5.50
2023-01-17T16:21:29.816Z,5.47
2023-01-17T16:23:57.094Z,5.46
2023-01-17T16:26:24.436Z,5.45
2023-01-17T16:28:51.924Z,5.44
2023-01-17T16:31:19.271Z,5.38
2023-01-17T16:33:50.715Z,5.35
2023-01-17T16:36:22.939Z,5.27
2023-01-17T16:38:52.440Z,5.28
2023-01-17T16:41:21.075Z,5.31
2023-01-17T16:43:59.342Z,5.30
2023-01-17T16:46:27.685Z,5.32
2023-01-17T16:48:55.703Z,5.30
2023-01-17T16:51:22.731Z,5.28
2023-01-17T16:53:50.057Z,5.20
2023-01-17T16:56:19.013Z,5.28
2023-01-17T16:58:46.671Z,5.23
2023-01-17T17:01:17.923Z,5.24
2023-01-17T17:03:46.449Z,5.24
2023-01-17T17:06:15.099Z,5.25
2023-01-17T17:08:43.395Z,5.26
2023-01-17T17:11:23.441Z,5.28
2023-01-17T17:13:51.626Z,5.27
2023-01-17T17:16:32.877Z,5.29
2023-01-17T17:19:06.698Z,5.28
2023-01-17T17:21:37.445Z,5.34
2023-01-17T17:24:04.946Z,5.32
2023-01-17T17:26:36.669Z,5.29
2023-01-17T17:29:07.134Z,5.33
2023-01-17T17:31:34.138Z,5.34
2023-01-17T17:34:02.644Z,5.34
2023-01-17T17:36:30.066Z,5.32
2023-01-17T17:38:58.605Z,5.30
2023-01-17T17:41:28.756Z,5.27
2023-01-17T17:43:56.199Z,5.23
2023-01-17T17:46:26.184Z,5.29
2023-01-17T17:48:53.739Z,5.32
2023-01-17T17:51:23.608Z,5.29
2023-01-17T17:53:52.964Z,5.32
2023-01-17T17:56:20.936Z,5.35
2023-01-17T17:58:50.699Z,5.38
2023-01-17T18:01:17.849Z,5.39
2023-01-17T18:03:46.084Z,5.43
2023-01-17T18:06:13.339Z,5.47
2023-01-17T18:08:40.191Z,5.51
2023-01-17T18:11:14.015Z,5.55
2023-01-17T18:13:42.887Z,5.56
2023-01-17T18:16:14.508Z,5.60
2023-01-17T18:18:45.925Z,5.62
2023-01-17T18:21:26.043Z,5.65
2023-01-17T18:23:58.692Z,5.64
2023-01-17T18:26:29.967Z,5.63
2023-01-17T18:28:59.093Z,5.61
2023-01-17T18:31:28.248Z,5.62
2023-01-17T18:33:58.107Z,5.62
2023-01-17T18:36:28.701Z,5.64
2023-01-17T18:38:56.330Z,5.64
2023-01-17T18:41:29.397Z,5.65
2023-01-17T18:43:57.058Z,5.66
2023-01-17T18:46:26.195Z,5.67
2023-01-17T18:48:57.167Z,5.69
2023-01-17T18:51:25.642Z,5.68
2023-01-17T18:53:53.057Z,5.67
2023-01-17T18:56:22.724Z,5.67
2023-01-17T18:58:50.898Z,5.67
2023-01-17T19:01:25.726Z,5.68
2023-01-17T19:03:57.892Z,5.67
2023-01-17T19:06:47.383Z,5.68
2023-01-17T19:09:16.519Z,5.71
2023-01-17T19:11:45.111Z,5.70
2023-01-17T19:14:12.922Z,5.69
2023-01-17T19:16:41.928Z,5.68
2023-01-17T19:19:13.687Z,5.68
2023-01-17T19:21:40.887Z,5.67
2023-01-17T19:24:10.558Z,5.68
2023-01-17T19:26:37.548Z,5.69
2023-01-17T19:29:05.285Z,5.67
2023-01-17T19:31:36.859Z,5.70
2023-01-17T19:34:03.935Z,5.64
2023-01-17T19:36:37.594Z,5.63
2023-01-17T19:39:09.257Z,5.62
2023-01-17T19:41:42.660Z,5.62
2023-01-17T19:44:12.247Z,5.60
2023-01-17T19:46:39.907Z,5.60
2023-01-17T19:49:08.840Z,5.57
2023-01-17T19:51:36.237Z,5.56
2023-01-17T19:54:04.281Z,5.54
2023-01-17T19:56:31.584Z,5.43
2023-01-17T19:59:01.679Z,5.42
2023-01-17T20:01:32.637Z,5.42
2023-01-17T20:04:02.844Z,5.46
2023-01-17T20:06:34.695Z,5.41
2023-01-17T20:09:03.367Z,5.32
2023-01-17T20:11:30.543Z,5.33
2023-01-17T20:13:59.785Z,5.36
2023-01-17T20:16:30.238Z,5.41
2023-01-17T20:18:59.443Z,5.42
2023-01-17T20:21:29.231Z,5.40
2023-01-17T20:23:58.580Z,5.41
2023-01-17T20:26:35.667Z,5.45
2023-01-17T20:29:11.322Z,5.45
2023-01-17T20:31:40.583Z,5.46
2023-01-17T20:34:10.820Z,5.45
2023-01-17T20:36:39.876Z,5.47
2023-01-17T20:39:08.592Z,5.46
2023-01-17T20:41:39.287Z,5.46
2023-01-17T20:44:10.456Z,5.45
2023-01-17T20:46:41.102Z,5.46
2023-01-17T20:49:17.082Z,5.48
2023-01-17T20:51:46.215Z,5.48
2023-01-17T20:54:16.452Z,5.51
2023-01-17T20:56:47.154Z,5.52
2023-01-17T20:59:17.849Z,5.53
2023-01-17T21:01:46.717Z,5.53
2023-01-17T21:04:14.915Z,5.56
2023-01-17T21:06:43.570Z,5.54
2023-01-17T21:09:15.326Z,5.57
2023-01-17T21:11:42.437Z,5.54
2023-01-17T21:14:09.689Z,5.55
2023-01-17T21:16:36.658Z,5.55
2023-01-17T21:19:04.648Z,5.57
2023-01-17T21:21:32.519Z,5.56
2023-01-17T21:23:59.872Z,5.57
2023-01-17T21:26:28.448Z,5.57
2023-01-17T21:28:56.083Z,5.56
2023-01-17T21:31:28.729Z,5.57
2023-01-17T21:33:59.613Z,5.58
2023-01-17T21:36:33.485Z,5.58
2023-01-17T21:39:04.805Z,5.55
2023-01-17T21:41:35.802Z,5.52
2023-01-17T21:44:08.012Z,5.53
2023-01-17T21:46:39.864Z,5.54
2023-01-17T21:49:10.712Z,5.55
2023-01-17T21:52:03.270Z,5.55
2023-01-17T21:54:55.752Z,5.54
2023-01-17T21:57:41.510Z,5.55
2023-01-17T22:00:15.655Z,5.55
2023-01-17T22:02:47.571Z,5.55
2023-01-17T22:05:16.883Z,5.55
2023-01-17T22:08:04.964Z,5.55
2023-01-17T22:10:32.563Z,5.55
2023-01-17T22:12:59.546Z,5.53
2023-01-17T22:15:26.644Z,5.51
2023-01-17T22:17:53.802Z,5.52
2023-01-17T22:20:21.511Z,5.50
2023-01-17T22:22:48.489Z,5.50
2023-01-17T22:25:15.642Z,5.49
2023-01-17T22:27:42.739Z,5.48
2023-01-17T22:30:13.040Z,5.46
2023-01-17T22:32:40.224Z,5.45
2023-01-17T22:35:08.320Z,5.46
2023-01-17T22:37:35.855Z,5.46
2023-01-17T22:40:04.998Z,5.45
2023-01-17T22:42:35.127Z,5.46
2023-01-17T22:45:02.281Z,5.47
2023-01-17T22:47:30.131Z,5.46
2023-01-17T22:49:57.465Z,5.47
2023-01-17T22:52:24.700Z,5.46
2023-01-17T22:54:51.942Z,5.45
2023-01-17T22:57:19.047Z,5.46
2023-01-17T22:59:45.986Z,5.47
2023-01-17T23:02:14.103Z,5.45
2023-01-17T23:04:42.976Z,5.44
2023-01-17T23:07:10.588Z,5.44
2023-01-17T23:09:37.617Z,5.45
2023-01-17T23:12:04.795Z,5.42
2023-01-17T23:14:53.213Z,5.39
2023-01-17T23:17:41.786Z,5.35
2023-01-17T23:20:11.889Z,5.32
2023-01-17T23:22:38.960Z,5.31
2023-01-17T23:25:12.666Z,5.32
2023-01-17T23:28:03.061Z,5.30
2023-01-17T23:30:37.496Z,5.30
2023-01-17T23:33:16.252Z,5.31
2023-01-17T23:35:46.148Z,5.31
2023-01-17T23:38:29.649Z,5.31
2023-01-17T23:41:33.271Z,5.29
2023-01-17T23:44:00.308Z,5.28
2023-01-17T23:46:30.122Z,5.27
2023-01-17T23:48:57.291Z,5.25
2023-01-17T23:51:24.183Z,5.26
2023-01-17T23:53:57.414Z,5.26
2023-01-17T23:56:24.966Z,5.26
2023-01-17T23:58:52.292Z,5.26
